Time;durP1;ratioP1;P1;durP2;ratioP2;P2;SDS_P1;SDS_P2;PMS_P1;PMS_P2;Temp;Humidity;BMP_temperature;BMP_pressure;BME280_temperature;BME280_humidity;BME280_pressure;Samples;Min_cycle;Max_cycle;Signal;HPM_P1;HPM_P2
2023/04/30 00:01:19;;;;;;;6.25;4.72;;;10.00;99.90;;;;;;5043006;28;20086;-43
2023/04/30 00:03:44;;;;;;;6.45;4.70;;;10.00;99.90;;;;;;5042843;28;20031;-42
2023/04/30 00:06:19;;;;;;;7.82;4.90;;;9.90;99.90;;;;;;5043962;28;20033;-43
2023/04/30 00:11:48;;;;;;;9.70;6.88;;;9.90;99.90;;;;;;5036782;28;20150;-44
2023/04/30 00:14:14;;;;;;;9.98;7.25;;;9.90;99.90;;;;;;5039575;28;20535;-44
2023/04/30 00:16:40;;;;;;;7.93;5.43;;;9.80;99.90;;;;;;5040837;28;20116;-42
2023/04/30 00:19:07;;;;;;;6.95;5.13;;;9.80;99.90;;;;;;5034015;28;20021;-42
2023/04/30 00:21:32;;;;;;;6.68;4.63;;;9.80;99.90;;;;;;5041334;28;20037;-42
2023/04/30 00:24:01;;;;;;;7.22;4.50;;;9.80;99.90;;;;;;5042450;28;20028;-41
2023/04/30 00:26:26;;;;;;;6.10;4.60;;;9.80;99.90;;;;;;5041286;28;20530;-43
2023/04/30 00:28:52;;;;;;;5.10;3.65;;;9.70;99.90;;;;;;5042504;28;20025;-43
2023/04/30 00:31:17;;;;;;;5.78;3.97;;;9.80;99.90;;;;;;5042777;28;20037;-44
2023/04/30 00:33:43;;;;;;;7.43;4.28;;;9.70;99.90;;;;;;5037439;28;20029;-44
2023/04/30 00:36:09;;;;;;;4.80;4.07;;;9.70;99.90;;;;;;5041837;28;20079;-42
2023/04/30 00:38:34;;;;;;;5.25;4.07;;;9.70;99.90;;;;;;5041877;28;20078;-44
2023/04/30 00:41:00;;;;;;;4.72;3.85;;;9.70;99.90;;;;;;5041927;28;20098;-42
2023/04/30 00:43:26;;;;;;;6.20;4.25;;;9.70;99.90;;;;;;5042161;28;20059;-43
2023/04/30 00:45:51;;;;;;;3.95;3.55;;;9.60;99.90;;;;;;5041235;28;20160;-42
2023/04/30 00:48:17;;;;;;;5.03;3.72;;;9.60;99.90;;;;;;5041740;28;20115;-42
2023/04/30 00:50:43;;;;;;;5.82;4.13;;;9.60;99.90;;;;;;5042121;28;20021;-42
2023/04/30 00:53:10;;;;;;;4.40;3.78;;;9.60;99.90;;;;;;5042110;28;20040;-42
2023/04/30 00:55:36;;;;;;;4.45;3.75;;;9.60;99.90;;;;;;5039574;28;20020;-43
2023/04/30 00:58:08;;;;;;;5.45;3.58;;;9.50;99.90;;;;;;5039954;28;20052;-43
2023/04/30 01:00:34;;;;;;;5.70;4.07;;;9.50;99.90;;;;;;5031722;28;20445;-43
2023/04/30 01:03:00;;;;;;;4.93;3.58;;;9.50;99.90;;;;;;5042374;28;20112;-43
2023/04/30 01:05:25;;;;;;;3.97;3.33;;;9.50;99.90;;;;;;5031642;28;20033;-44
2023/04/30 01:07:54;;;;;;;4.15;3.38;;;9.40;99.90;;;;;;5036883;28;20032;-44
2023/04/30 01:10:24;;;;;;;5.15;4.00;;;9.40;99.90;;;;;;5027421;28;20047;-42
2023/04/30 01:12:59;;;;;;;4.70;3.42;;;9.40;99.90;;;;;;5041163;28;20075;-43
2023/04/30 01:15:41;;;;;;;4.15;3.40;;;9.40;99.90;;;;;;5041262;28;20025;-42
2023/04/30 01:18:17;;;;;;;3.83;3.17;;;9.40;99.90;;;;;;5033079;28;20037;-43
2023/04/30 01:20:53;;;;;;;5.60;3.63;;;9.40;99.90;;;;;;5039075;28;20093;-43
2023/04/30 01:23:41;;;;;;;5.13;3.20;;;9.40;99.90;;;;;;5041160;28;20036;-42
2023/04/30 01:26:23;;;;;;;3.65;3.15;;;9.30;99.90;;;;;;5041027;28;20488;-42
2023/04/30 01:28:50;;;;;;;6.07;3.38;;;9.30;99.90;;;;;;5037717;28;20106;-43
2023/04/30 01:31:18;;;;;;;5.95;3.65;;;9.30;99.90;;;;;;5034374;28;20033;-42
2023/04/30 01:33:46;;;;;;;5.82;3.70;;;9.20;99.90;;;;;;5037055;28;20144;-43
2023/04/30 01:36:36;;;;;;;8.68;3.35;;;9.20;99.90;;;;;;5026632;28;20893;-42
2023/04/30 01:39:35;;;;;;;5.35;3.45;;;9.20;99.90;;;;;;5041394;28;20033;-42
2023/04/30 01:42:06;;;;;;;5.90;3.65;;;9.20;99.90;;;;;;5039567;28;20077;-42
2023/04/30 01:45:00;;;;;;;4.97;2.92;;;9.20;99.90;;;;;;5041493;28;20340;-42
2023/04/30 01:47:38;;;;;;;4.80;3.38;;;9.20;99.90;;;;;;5039534;28;20863;-42
2023/04/30 01:50:28;;;;;;;4.93;3.45;;;9.10;99.90;;;;;;5039200;28;20025;-43
2023/04/30 01:52:58;;;;;;;4.90;3.65;;;9.10;99.90;;;;;;5040764;28;20413;-43
2023/04/30 01:55:34;;;;;;;4.00;3.30;;;9.10;99.90;;;;;;5040976;28;20025;-42
2023/04/30 01:58:04;;;;;;;5.65;4.35;;;9.00;99.90;;;;;;5040209;28;20033;-42
2023/04/30 02:00:30;;;;;;;5.68;3.67;;;9.00;99.90;;;;;;5040829;28;20086;-43
2023/04/30 02:02:56;;;;;;;5.70;3.63;;;9.00;99.90;;;;;;5039896;28;20020;-43
2023/04/30 02:05:22;;;;;;;5.07;3.80;;;9.00;99.90;;;;;;5035118;28;20041;-43
2023/04/30 02:07:50;;;;;;;4.53;3.53;;;9.00;99.90;;;;;;5032929;28;20029;-42
2023/04/30 02:10:17;;;;;;;4.28;3.50;;;8.90;99.90;;;;;;5040862;28;20021;-41
2023/04/30 02:12:42;;;;;;;4.85;3.65;;;8.90;99.90;;;;;;5040853;28;20075;-43
2023/04/30 02:15:08;;;;;;;4.03;3.63;;;8.90;99.90;;;;;;5041117;28;20472;-42
2023/04/30 02:17:34;;;;;;;4.50;3.63;;;8.90;99.90;;;;;;5040074;28;20043;-40
2023/04/30 02:20:00;;;;;;;5.18;3.60;;;8.90;99.90;;;;;;5040606;28;20392;-44
2023/04/30 02:22:26;;;;;;;5.38;3.58;;;8.80;99.90;;;;;;5027115;28;20562;-42
2023/04/30 02:24:56;;;;;;;4.03;3.65;;;8.80;99.90;;;;;;5040440;28;20024;-43
2023/04/30 02:27:22;;;;;;;5.90;3.90;;;8.80;99.90;;;;;;5041050;28;20606;-43
2023/04/30 02:29:49;;;;;;;4.82;3.75;;;8.80;99.90;;;;;;5040428;28;20025;-43
2023/04/30 02:32:14;;;;;;;5.38;4.22;;;8.80;99.90;;;;;;5039367;28;20052;-42
2023/04/30 02:34:43;;;;;;;5.78;4.13;;;8.80;99.90;;;;;;5039344;28;20021;-43
2023/04/30 02:37:09;;;;;;;6.97;4.28;;;8.70;99.90;;;;;;5038475;28;20029;-42
2023/04/30 02:39:35;;;;;;;6.55;4.20;;;8.70;99.90;;;;;;5039355;28;20099;-43
2023/04/30 02:42:00;;;;;;;5.30;4.20;;;8.70;99.90;;;;;;5038812;28;20060;-32
2023/04/30 02:44:29;;;;;;;4.80;4.13;;;8.70;99.90;;;;;;5034513;28;20043;-33
2023/04/30 02:46:55;;;;;;;5.60;3.83;;;8.60;99.90;;;;;;5040025;28;20435;-43
2023/04/30 02:49:20;;;;;;;7.53;4.45;;;8.60;99.90;;;;;;5040906;28;20033;-43
2023/04/30 02:51:46;;;;;;;5.53;4.35;;;8.60;99.90;;;;;;5034801;28;20863;-43
2023/04/30 02:54:11;;;;;;;6.18;4.30;;;8.60;99.90;;;;;;5039577;28;20013;-43
2023/04/30 02:56:40;;;;;;;6.05;3.83;;;8.60;99.90;;;;;;5040319;28;20639;-42
2023/04/30 02:59:07;;;;;;;4.00;3.60;;;8.60;99.90;;;;;;5038988;28;20469;-42
2023/04/30 03:01:32;;;;;;;5.47;3.63;;;8.60;99.90;;;;;;5038549;28;20686;-42
2023/04/30 03:04:02;;;;;;;6.95;3.90;;;8.50;99.90;;;;;;5040040;28;20036;-42
2023/04/30 03:06:31;;;;;;;4.80;3.80;;;8.50;99.90;;;;;;5039728;28;20106;-42
2023/04/30 03:08:57;;;;;;;4.63;3.78;;;8.50;99.90;;;;;;5038747;28;20025;-43
2023/04/30 03:11:23;;;;;;;5.13;3.85;;;8.50;99.90;;;;;;5037450;28;20029;-43
2023/04/30 03:13:50;;;;;;;6.20;3.80;;;8.40;99.90;;;;;;5039006;28;20151;-43
2023/04/30 03:16:17;;;;;;;5.10;3.92;;;8.40;99.90;;;;;;5040026;28;20025;-43
2023/04/30 03:18:43;;;;;;;5.78;4.13;;;8.40;99.90;;;;;;5038816;28;20028;-43
2023/04/30 03:21:08;;;;;;;6.60;3.90;;;8.40;99.90;;;;;;5036087;28;20040;-43
2023/04/30 03:23:34;;;;;;;4.40;3.85;;;8.40;99.90;;;;;;5038750;28;20024;-42
2023/04/30 03:26:00;;;;;;;5.82;4.28;;;8.40;99.90;;;;;;5040072;28;20064;-43
2023/04/30 03:28:25;;;;;;;5.55;3.80;;;8.40;99.90;;;;;;5040079;28;20095;-44
2023/04/30 03:30:54;;;;;;;5.22;3.75;;;8.30;99.90;;;;;;5040061;28;20025;-43
2023/04/30 03:33:19;;;;;;;4.15;3.55;;;8.30;99.90;;;;;;5043423;28;20094;-42
2023/04/30 03:35:45;;;;;;;3.97;3.58;;;8.30;99.90;;;;;;5043307;28;20025;-42
2023/04/30 03:38:11;;;;;;;5.60;3.15;;;8.30;99.90;;;;;;5043442;28;20059;-42
2023/04/30 03:40:39;;;;;;;5.57;3.38;;;8.30;99.90;;;;;;5043328;28;20923;-44
2023/04/30 03:43:05;;;;;;;4.55;3.55;;;8.30;99.90;;;;;;5041323;28;20084;-45
2023/04/30 03:45:31;;;;;;;5.13;3.65;;;8.30;99.90;;;;;;5041533;28;20033;-43
2023/04/30 03:47:56;;;;;;;6.60;3.60;;;8.30;99.90;;;;;;5043103;28;20056;-43
2023/04/30 03:50:22;;;;;;;4.35;3.28;;;8.30;99.90;;;;;;5042911;28;20060;-43
2023/04/30 03:52:51;;;;;;;8.35;3.60;;;8.30;99.90;;;;;;5042979;28;20529;-44
2023/04/30 03:55:17;;;;;;;5.57;3.67;;;8.30;99.90;;;;;;5025569;28;20033;-42
2023/04/30 03:57:43;;;;;;;4.82;3.33;;;8.20;99.90;;;;;;5030900;28;20032;-42
2023/04/30 04:00:09;;;;;;;7.72;3.92;;;8.20;99.90;;;;;;5041352;28;20059;-42
2023/04/30 04:02:38;;;;;;;4.65;3.40;;;8.20;99.90;;;;;;5039855;28;20044;-33
2023/04/30 04:05:06;;;;;;;6.55;3.88;;;8.20;99.90;;;;;;5038978;28;20090;-34
2023/04/30 04:07:32;;;;;;;7.65;3.92;;;8.20;99.90;;;;;;5037928;28;20060;-34
2023/04/30 04:09:58;;;;;;;3.78;3.28;;;8.10;99.90;;;;;;5041646;28;20124;-34
2023/04/30 04:12:25;;;;;;;8.82;4.35;;;8.10;99.90;;;;;;5042750;28;20036;-33
2023/04/30 04:14:57;;;;;;;5.93;3.88;;;8.10;99.90;;;;;;5024556;28;20026;-32
2023/04/30 04:17:22;;;;;;;6.70;4.93;;;8.10;99.90;;;;;;5035153;28;20844;-31
2023/04/30 04:19:58;;;;;;;7.30;5.20;;;8.10;99.90;;;;;;5042444;28;20021;-44
2023/04/30 04:22:23;;;;;;;7.53;4.43;;;8.10;99.90;;;;;;5043089;28;20029;-43
2023/04/30 04:24:50;;;;;;;7.18;5.00;;;8.10;99.90;;;;;;5040240;28;20674;-43
2023/04/30 04:27:15;;;;;;;6.13;4.40;;;8.00;99.90;;;;;;5043779;28;20037;-43
2023/04/30 04:29:41;;;;;;;8.25;4.60;;;8.10;99.90;;;;;;5043138;28;20759;-43
2023/04/30 04:32:06;;;;;;;6.45;4.28;;;8.10;99.90;;;;;;5041110;28;20706;-42
2023/04/30 04:34:37;;;;;;;8.88;4.78;;;8.10;99.90;;;;;;5043210;28;20432;-43
2023/04/30 04:37:02;;;;;;;7.50;5.43;;;8.00;99.90;;;;;;5042798;28;20463;-43
2023/04/30 04:39:28;;;;;;;6.60;5.45;;;8.10;99.90;;;;;;5041506;28;20090;-43
2023/04/30 04:41:54;;;;;;;8.32;5.30;;;8.10;99.90;;;;;;5042073;28;20393;-43
2023/04/30 04:44:19;;;;;;;8.05;4.97;;;8.10;99.90;;;;;;5038632;28;20025;-42
2023/04/30 04:46:45;;;;;;;8.52;5.30;;;8.10;99.90;;;;;;5041889;28;20029;-43
2023/04/30 04:49:11;;;;;;;6.57;4.95;;;8.10;99.90;;;;;;5041487;28;20063;-43
2023/04/30 04:51:38;;;;;;;6.28;4.30;;;8.10;99.90;;;;;;5042197;28;20122;-44
2023/04/30 04:54:06;;;;;;;7.75;4.88;;;8.10;99.90;;;;;;5042475;28;20025;-43
2023/04/30 04:56:32;;;;;;;6.18;4.43;;;8.10;99.90;;;;;;5041513;28;20567;-44
2023/04/30 04:59:01;;;;;;;5.85;4.20;;;8.10;99.90;;;;;;5036861;28;20056;-43
2023/04/30 05:01:26;;;;;;;9.82;4.72;;;8.20;99.90;;;;;;5040234;28;20029;-43
2023/04/30 05:03:53;;;;;;;8.10;4.82;;;8.20;99.90;;;;;;5042005;28;20036;-43
2023/04/30 05:06:21;;;;;;;6.35;5.20;;;8.20;99.90;;;;;;5041846;28;20355;-43
2023/04/30 05:08:47;;;;;;;6.43;4.75;;;8.20;99.90;;;;;;5042083;28;20563;-42
2023/04/30 05:11:12;;;;;;;6.20;4.97;;;8.20;99.90;;;;;;5042366;28;20090;-43
2023/04/30 05:13:41;;;;;;;6.65;5.07;;;8.30;99.90;;;;;;5040728;28;20032;-43
2023/04/30 05:16:07;;;;;;;7.65;5.13;;;8.30;99.90;;;;;;5038527;28;20056;-43
2023/04/30 05:18:35;;;;;;;8.52;5.70;;;8.30;99.90;;;;;;5037893;28;20048;-44
2023/04/30 05:21:07;;;;;;;8.18;5.82;;;8.30;99.90;;;;;;5029723;28;20554;-45
2023/04/30 05:23:33;;;;;;;7.23;5.70;;;8.30;99.90;;;;;;5041748;28;20107;-44
2023/04/30 05:25:58;;;;;;;8.32;5.43;;;8.30;99.90;;;;;;5041880;28;20885;-42
2023/04/30 05:28:24;;;;;;;7.93;6.07;;;8.40;99.90;;;;;;5041118;28;20552;-43
2023/04/30 05:30:49;;;;;;;8.63;5.85;;;8.40;99.90;;;;;;5041736;28;20040;-42
2023/04/30 05:33:17;;;;;;;7.38;5.60;;;8.50;99.90;;;;;;5040991;28;20734;-43
2023/04/30 05:35:43;;;;;;;6.93;5.82;;;8.50;99.90;;;;;;5041016;28;20863;-43
2023/04/30 05:38:09;;;;;;;6.40;5.70;;;8.50;99.90;;;;;;5039892;28;20024;-43
2023/04/30 05:40:34;;;;;;;7.30;6.07;;;8.60;99.90;;;;;;5040454;28;20032;-42
2023/04/30 05:43:00;;;;;;;7.55;5.45;;;8.60;99.90;;;;;;5038743;28;20656;-43
2023/04/30 05:45:25;;;;;;;8.32;5.60;;;8.60;99.90;;;;;;5039265;28;20047;-42
2023/04/30 05:47:51;;;;;;;7.20;5.40;;;8.70;99.90;;;;;;5040259;28;20060;-42
2023/04/30 05:50:17;;;;;;;7.90;5.35;;;8.70;99.90;;;;;;5041696;28;20055;-43
2023/04/30 05:52:42;;;;;;;6.28;5.00;;;8.80;99.90;;;;;;5041157;28;20033;-43
2023/04/30 05:55:08;;;;;;;7.70;5.28;;;8.80;99.90;;;;;;5040034;28;20817;-42
2023/04/30 05:57:34;;;;;;;8.48;5.40;;;8.80;99.90;;;;;;5041066;28;20025;-43
2023/04/30 06:00:05;;;;;;;6.90;5.18;;;8.90;99.90;;;;;;5040131;28;20801;-42
2023/04/30 06:02:31;;;;;;;7.68;5.35;;;8.90;99.90;;;;;;5040690;28;20132;-43
2023/04/30 06:04:57;;;;;;;9.02;4.88;;;8.90;99.90;;;;;;5026082;28;20031;-43
2023/04/30 06:07:22;;;;;;;6.20;4.85;;;9.00;99.90;;;;;;5037146;28;20140;-43
2023/04/30 06:09:48;;;;;;;6.43;4.70;;;9.00;99.90;;;;;;5021321;28;20046;-43
2023/04/30 06:12:13;;;;;;;6.45;4.93;;;9.10;99.90;;;;;;5040725;28;20040;-42
2023/04/30 06:14:42;;;;;;;7.60;4.90;;;9.10;99.90;;;;;;5040101;28;20036;-42
2023/04/30 06:17:07;;;;;;;6.43;4.90;;;9.10;99.90;;;;;;5039887;28;20024;-42
2023/04/30 06:19:33;;;;;;;7.18;4.88;;;9.20;99.90;;;;;;5039984;28;20141;-43
2023/04/30 06:21:58;;;;;;;6.55;4.65;;;9.20;99.90;;;;;;5040648;28;20094;-42
2023/04/30 06:24:33;;;;;;;6.25;4.65;;;9.20;99.90;;;;;;5019477;28;20496;-43
2023/04/30 06:27:02;;;;;;;8.13;4.60;;;9.30;99.90;;;;;;5037050;28;20053;-44
2023/04/30 06:29:27;;;;;;;7.90;4.88;;;9.30;99.90;;;;;;5040002;28;20245;-43
2023/04/30 06:31:53;;;;;;;7.07;4.97;;;9.40;99.90;;;;;;5039451;28;20503;-43
2023/04/30 06:34:19;;;;;;;6.28;4.90;;;9.50;99.90;;;;;;5040700;28;20551;-43
2023/04/30 06:36:45;;;;;;;6.35;5.35;;;9.50;99.90;;;;;;5040666;28;20025;-43
2023/04/30 06:39:14;;;;;;;7.53;5.40;;;9.50;99.90;;;;;;5038669;28;20110;-43
2023/04/30 06:41:40;;;;;;;7.95;6.10;;;9.60;99.90;;;;;;5039318;28;20112;-43
2023/04/30 06:44:06;;;;;;;8.27;5.53;;;9.60;99.90;;;;;;5039946;28;20171;-43
2023/04/30 06:46:33;;;;;;;8.77;5.45;;;9.60;99.90;;;;;;5039344;28;20046;-43
2023/04/30 06:48:59;;;;;;;6.68;4.97;;;9.60;99.90;;;;;;5040693;28;20136;-43
2023/04/30 06:51:25;;;;;;;6.10;4.80;;;9.70;99.90;;;;;;5039409;28;20124;-42
2023/04/30 06:53:51;;;;;;;6.60;5.03;;;9.70;99.90;;;;;;5039964;28;20037;-43
2023/04/30 06:56:16;;;;;;;6.45;5.07;;;9.80;99.90;;;;;;5040330;28;20025;-43
2023/04/30 06:58:42;;;;;;;5.93;5.13;;;9.80;99.90;;;;;;5037862;28;20532;-43
2023/04/30 07:01:08;;;;;;;5.50;4.75;;;9.90;99.90;;;;;;5039639;28;20036;-42
2023/04/30 07:03:34;;;;;;;7.70;5.30;;;9.90;99.90;;;;;;5038807;28;20052;-44
2023/04/30 07:06:00;;;;;;;8.10;5.32;;;10.00;99.90;;;;;;5019939;28;20072;-44
2023/04/30 07:08:25;;;;;;;9.88;6.13;;;10.00;99.90;;;;;;5039163;28;20845;-43
2023/04/30 07:10:51;;;;;;;7.95;5.95;;;10.10;99.90;;;;;;5044586;28;20663;-42
2023/04/30 07:13:17;;;;;;;7.65;5.28;;;10.10;99.90;;;;;;5043771;28;20049;-42
2023/04/30 07:15:42;;;;;;;7.90;5.43;;;10.20;99.90;;;;;;5044021;28;20017;-43
2023/04/30 07:18:08;;;;;;;9.30;5.70;;;10.20;99.90;;;;;;5043305;28;20111;-43
2023/04/30 07:20:34;;;;;;;8.68;5.72;;;10.20;99.90;;;;;;5041996;28;20024;-43
2023/04/30 07:22:59;;;;;;;7.30;5.85;;;10.30;99.90;;;;;;5043219;28;20029;-42
2023/04/30 07:25:25;;;;;;;8.13;6.00;;;10.30;99.90;;;;;;5044183;28;20136;-43
2023/04/30 07:27:52;;;;;;;8.07;5.70;;;10.40;99.90;;;;;;5042393;28;20033;-43
2023/04/30 07:30:17;;;;;;;7.57;5.95;;;10.40;99.90;;;;;;5038805;28;20116;-43
2023/04/30 07:32:43;;;;;;;10.68;6.13;;;10.40;99.90;;;;;;5025005;28;20965;-43
2023/04/30 07:35:09;;;;;;;5.95;4.88;;;10.50;99.90;;;;;;5033645;28;20028;-43
2023/04/30 07:37:35;;;;;;;5.88;4.95;;;10.50;99.90;;;;;;5040496;28;20045;-43
2023/04/30 07:40:02;;;;;;;6.55;4.85;;;10.60;99.90;;;;;;5039315;28;20087;-43
2023/04/30 07:42:27;;;;;;;6.60;5.00;;;10.60;99.90;;;;;;5041679;28;20611;-43
2023/04/30 07:44:53;;;;;;;7.28;4.53;;;10.70;99.90;;;;;;5040707;28;20021;-43
2023/04/30 07:47:18;;;;;;;7.47;5.88;;;10.80;99.90;;;;;;5042836;28;20053;-43
2023/04/30 07:49:48;;;;;;;6.60;4.95;;;10.80;99.90;;;;;;5042735;28;20059;-43
2023/04/30 07:52:14;;;;;;;5.20;4.68;;;10.90;99.90;;;;;;5043784;28;20130;-43
2023/04/30 07:54:39;;;;;;;7.55;5.45;;;10.90;99.90;;;;;;5041238;28;20127;-43
2023/04/30 07:57:06;;;;;;;6.05;4.70;;;11.00;99.90;;;;;;5042220;28;20028;-44
2023/04/30 07:59:31;;;;;;;7.20;5.05;;;11.00;99.90;;;;;;5041610;28;20038;-43
2023/04/30 08:01:57;;;;;;;7.88;5.13;;;11.10;99.90;;;;;;5041318;28;20037;-43
2023/04/30 08:04:23;;;;;;;6.78;5.15;;;11.10;99.90;;;;;;5039435;28;20025;-46
2023/04/30 08:06:49;;;;;;;6.90;5.00;;;11.20;99.90;;;;;;5043326;28;20063;-43
2023/04/30 08:09:15;;;;;;;5.97;4.90;;;11.20;99.90;;;;;;5041150;28;20108;-44
2023/04/30 08:11:41;;;;;;;6.55;4.75;;;11.20;99.90;;;;;;5031007;28;20507;-43
2023/04/30 08:14:09;;;;;;;6.90;4.85;;;11.30;99.90;;;;;;5042698;28;20029;-43
2023/04/30 08:16:35;;;;;;;6.13;4.78;;;11.30;99.90;;;;;;5040876;28;20071;-43
2023/04/30 08:19:00;;;;;;;6.68;5.07;;;11.40;99.90;;;;;;5042787;28;20057;-44
2023/04/30 08:21:27;;;;;;;8.50;5.15;;;11.40;99.90;;;;;;5042506;28;20116;-43
2023/04/30 08:23:53;;;;;;;6.88;5.03;;;11.50;99.90;;;;;;5041145;28;20504;-43
2023/04/30 08:26:19;;;;;;;7.20;5.00;;;11.50;99.90;;;;;;5042672;28;20083;-44
2023/04/30 08:28:47;;;;;;;6.43;4.90;;;11.60;99.90;;;;;;5043529;28;20108;-43
2023/04/30 08:31:16;;;;;;;6.53;4.55;;;11.60;99.90;;;;;;5041946;28;20033;-43
2023/04/30 08:33:42;;;;;;;7.45;4.72;;;11.70;99.90;;;;;;5041767;28;20021;-43
2023/04/30 08:36:07;;;;;;;9.15;4.90;;;11.70;99.90;;;;;;5042896;28;20555;-42
2023/04/30 08:38:33;;;;;;;5.88;4.78;;;11.80;99.90;;;;;;5042030;28;20480;-43
2023/04/30 08:41:10;;;;;;;6.03;4.82;;;11.80;99.90;;;;;;5042377;28;20013;-44
2023/04/30 08:43:36;;;;;;;7.45;4.68;;;11.90;99.90;;;;;;5041275;28;20029;-43
2023/04/30 08:46:02;;;;;;;6.90;4.40;;;12.00;99.90;;;;;;5041162;28;20032;-43
2023/04/30 08:48:30;;;;;;;5.78;3.85;;;12.00;99.90;;;;;;5041703;28;20145;-43
2023/04/30 08:50:58;;;;;;;4.50;4.10;;;12.10;99.90;;;;;;5039790;28;20052;-43
2023/04/30 08:53:23;;;;;;;5.68;4.00;;;12.20;99.90;;;;;;5029812;28;20049;-44
2023/04/30 08:55:49;;;;;;;7.15;4.90;;;12.20;99.90;;;;;;5027270;28;20013;-43
2023/04/30 08:58:14;;;;;;;6.82;3.92;;;12.30;99.90;;;;;;5041806;28;20476;-43
2023/04/30 09:00:40;;;;;;;6.50;3.90;;;12.40;99.90;;;;;;5033313;28;20153;-42
2023/04/30 09:03:07;;;;;;;6.10;4.35;;;12.50;99.90;;;;;;5040412;28;20032;-44
2023/04/30 09:05:32;;;;;;;6.10;4.18;;;12.50;99.90;;;;;;5037379;28;20107;-43
2023/04/30 09:07:58;;;;;;;6.57;3.53;;;12.60;99.90;;;;;;5042242;28;20064;-43
2023/04/30 09:10:24;;;;;;;4.97;3.97;;;12.60;99.90;;;;;;5039815;28;20112;-43
2023/04/30 09:12:59;;;;;;;5.07;4.45;;;12.70;99.90;;;;;;5039107;28;20084;-43
2023/04/30 09:15:25;;;;;;;4.90;4.00;;;12.70;99.90;;;;;;5040551;28;20638;-43
2023/04/30 09:18:04;;;;;;;5.53;3.95;;;12.70;99.90;;;;;;5041105;28;20230;-43
2023/04/30 09:20:29;;;;;;;4.88;3.95;;;12.80;99.90;;;;;;5040976;28;20107;-43
2023/04/30 09:23:09;;;;;;;5.13;4.20;;;12.80;99.90;;;;;;5041247;28;20037;-44
2023/04/30 09:25:42;;;;;;;3.97;3.28;;;12.80;99.90;;;;;;5022061;28;20096;-43
2023/04/30 09:28:11;;;;;;;;;;;12.90;99.90;;;;;;5038145;28;20569;-42
2023/04/30 09:30:40;;;;;;;4.47;3.33;;;13.00;99.90;;;;;;5041486;28;19908;-43
2023/04/30 09:33:05;;;;;;;7.68;4.03;;;13.00;99.90;;;;;;5040776;28;20190;-44
2023/04/30 09:35:33;;;;;;;6.25;4.05;;;13.00;99.90;;;;;;5041201;28;20530;-44
2023/04/30 09:38:03;;;;;;;4.18;3.05;;;13.00;99.90;;;;;;5041528;28;20112;-43
2023/04/30 09:40:35;;;;;;;5.95;4.00;;;13.00;99.90;;;;;;5040643;28;20711;-43
2023/04/30 09:43:00;;;;;;;5.88;4.03;;;13.10;99.90;;;;;;5041317;28;20099;-44
2023/04/30 09:45:26;;;;;;;5.70;3.97;;;13.20;99.90;;;;;;5041950;28;20025;-43
2023/04/30 09:47:52;;;;;;;7.13;4.60;;;13.20;99.90;;;;;;5040749;28;20055;-43
2023/04/30 09:50:17;;;;;;;5.25;3.78;;;13.20;99.90;;;;;;5040742;28;20627;-44
2023/04/30 09:52:52;;;;;;;6.03;3.17;;;13.30;99.90;;;;;;5039879;28;20923;-43
2023/04/30 09:55:19;;;;;;;3.53;3.20;;;13.30;99.90;;;;;;5040036;28;20045;-43
2023/04/30 09:57:48;;;;;;;6.32;3.38;;;13.30;99.90;;;;;;5039998;28;20128;-43
2023/04/30 10:00:15;;;;;;;3.38;3.08;;;13.40;99.90;;;;;;5040312;28;20396;-44
2023/04/30 10:02:40;;;;;;;4.38;3.35;;;13.40;99.90;;;;;;5039940;28;20037;-43
2023/04/30 10:05:06;;;;;;;5.13;3.80;;;13.50;99.90;;;;;;5040079;28;20031;-44
2023/04/30 10:07:38;;;;;;;4.32;3.50;;;13.60;99.90;;;;;;5041308;28;20036;-44
2023/04/30 10:10:10;;;;;;;4.38;3.20;;;13.60;99.90;;;;;;5039224;28;20095;-43
2023/04/30 10:12:43;;;;;;;3.53;3.22;;;13.70;99.90;;;;;;5040651;28;20052;-43
2023/04/30 10:15:34;;;;;;;3.85;3.30;;;13.70;99.90;;;;;;5039601;28;20048;-44
2023/04/30 10:18:03;;;;;;;3.08;2.70;;;13.80;99.90;;;;;;5040895;28;20033;-44
2023/04/30 10:20:33;;;;;;;4.43;3.25;;;13.90;99.90;;;;;;5040818;28;20108;-43
2023/04/30 10:22:59;;;;;;;2.90;2.70;;;13.90;99.90;;;;;;5038874;28;20048;-44
2023/04/30 10:25:26;;;;;;;2.90;2.60;;;14.00;99.90;;;;;;5040472;28;20028;-43
2023/04/30 10:27:52;;;;;;;2.75;2.05;;;14.10;99.90;;;;;;5041620;28;20032;-43
2023/04/30 10:30:20;;;;;;;3.40;2.58;;;14.20;99.90;;;;;;5040134;28;20033;-42
2023/04/30 10:33:15;;;;;;;2.60;2.40;;;14.20;99.90;;;;;;5040361;28;20044;-43
2023/04/30 10:35:45;;;;;;;3.55;2.60;;;14.20;99.90;;;;;;5036514;28;20044;-43
2023/04/30 10:38:21;;;;;;;2.53;2.10;;;14.30;99.90;;;;;;5040415;28;20029;-44
2023/04/30 10:40:47;;;;;;;2.85;2.63;;;14.30;99.90;;;;;;5040463;28;20033;-44
2023/04/30 10:43:13;;;;;;;3.83;2.80;;;14.40;99.90;;;;;;5042759;28;20021;-44
2023/04/30 10:45:42;;;;;;;3.53;2.50;;;14.40;99.90;;;;;;5044253;28;20072;-43
2023/04/30 10:48:09;;;;;;;3.08;2.78;;;14.50;99.90;;;;;;5044252;28;20045;-44
2023/04/30 10:50:42;;;;;;;4.18;2.83;;;14.50;99.90;;;;;;5043710;28;20727;-42
2023/04/30 10:53:14;;;;;;;3.83;2.85;;;14.60;99.90;;;;;;5044673;28;20041;-44
2023/04/30 10:56:07;;;;;;;3.20;2.90;;;14.60;99.90;;;;;;5044249;28;20017;-44
2023/04/30 10:58:40;;;;;;;3.67;3.10;;;14.70;99.90;;;;;;5030884;28;20025;-43
2023/04/30 11:01:16;;;;;;;3.50;2.72;;;14.70;99.90;;;;;;5043742;28;20115;-33
2023/04/30 11:04:02;;;;;;;2.92;2.63;;;14.70;99.90;;;;;;5043507;28;20492;-34
2023/04/30 11:07:09;;;;;;;4.00;3.15;;;14.80;99.90;;;;;;5042754;28;20033;-34
2023/04/30 11:09:44;;;;;;;3.50;2.45;;;14.90;99.90;;;;;;5024221;28;20121;-34
2023/04/30 11:12:18;;;;;;;4.05;2.85;;;15.00;99.90;;;;;;5042448;28;20055;-35
2023/04/30 11:14:45;;;;;;;10.63;3.30;;;15.00;99.90;;;;;;5043886;28;20029;-36
2023/04/30 11:17:21;;;;;;;4.05;3.65;;;15.00;99.90;;;;;;5044027;28;20658;-32
2023/04/30 11:19:52;;;;;;;4.43;2.50;;;15.10;99.90;;;;;;5043364;28;20033;-35
2023/04/30 11:22:22;;;;;;;3.35;2.50;;;15.10;99.90;;;;;;5043631;28;20477;-33
2023/04/30 11:24:58;;;;;;;3.20;2.83;;;15.10;99.90;;;;;;5044578;28;20032;-34
2023/04/30 11:27:25;;;;;;;3.55;2.65;;;15.20;99.90;;;;;;5042753;28;20025;-34
2023/04/30 11:29:52;;;;;;;6.13;2.67;;;15.30;99.90;;;;;;5043964;28;20017;-34
2023/04/30 11:32:19;;;;;;;3.85;3.10;;;15.30;99.90;;;;;;5043827;28;20041;-32
2023/04/30 11:34:45;;;;;;;3.70;3.00;;;15.40;99.90;;;;;;5043557;28;20122;-34
2023/04/30 11:37:13;;;;;;;3.97;2.95;;;15.50;99.90;;;;;;5043402;28;20029;-34
2023/04/30 11:39:40;;;;;;;3.13;2.83;;;15.50;99.90;;;;;;5044069;28;20078;-33
2023/04/30 11:42:14;;;;;;;3.67;3.20;;;15.60;99.90;;;;;;5044144;28;20645;-35
2023/04/30 11:44:40;;;;;;;5.20;3.00;;;15.60;99.90;;;;;;5044259;28;20111;-33
2023/04/30 11:47:05;;;;;;;3.78;2.80;;;15.70;99.90;;;;;;5043070;28;20040;-34
2023/04/30 11:49:31;;;;;;;3.00;2.65;;;15.70;99.90;;;;;;5043940;28;20025;-34
2023/04/30 11:51:57;;;;;;;3.95;2.60;;;15.80;99.90;;;;;;5043446;28;20036;-33
2023/04/30 11:54:22;;;;;;;2.78;2.50;;;15.80;99.90;;;;;;5042723;28;20900;-34
2023/04/30 11:56:48;;;;;;;2.88;2.42;;;15.90;99.90;;;;;;5043919;28;20029;-33
2023/04/30 11:59:18;;;;;;;2.80;2.10;;;15.90;99.90;;;;;;5043619;28;20033;-35
2023/04/30 12:01:44;;;;;;;4.55;2.50;;;16.00;99.90;;;;;;5042900;28;20017;-35
2023/04/30 12:04:10;;;;;;;3.53;2.28;;;16.00;99.90;;;;;;5043441;28;20144;-33
2023/04/30 12:06:35;;;;;;;5.40;2.28;;;16.10;99.90;;;;;;5043259;28;20025;-34
2023/04/30 12:09:07;;;;;;;3.95;2.40;;;16.10;99.90;;;;;;5041602;28;20154;-34
2023/04/30 12:11:40;;;;;;;2.92;2.30;;;16.20;99.90;;;;;;5042186;28;20029;-34
2023/04/30 12:14:09;;;;;;;2.80;2.50;;;16.20;99.90;;;;;;5042080;28;20017;-33
2023/04/30 12:16:43;;;;;;;2.75;2.35;;;16.30;99.90;;;;;;5041806;28;20028;-34
2023/04/30 12:19:08;;;;;;;2.47;2.00;;;16.40;99.90;;;;;;5042885;28;20123;-35
2023/04/30 12:21:34;;;;;;;3.22;2.40;;;16.50;99.90;;;;;;5042704;28;20508;-34
2023/04/30 12:24:00;;;;;;;3.55;2.25;;;16.50;99.90;;;;;;5042225;28;20032;-34
2023/04/30 12:26:34;;;;;;;3.95;2.20;;;16.60;99.90;;;;;;5043349;28;20032;-33
2023/04/30 12:29:03;;;;;;;2.78;2.17;;;16.70;99.90;;;;;;5042218;28;20090;-34
2023/04/30 12:31:32;;;;;;;2.28;2.00;;;16.80;99.90;;;;;;5042810;28;20396;-35
2023/04/30 12:34:02;;;;;;;2.50;2.00;;;16.90;99.90;;;;;;5042512;28;20752;-34
2023/04/30 12:36:50;;;;;;;2.70;2.22;;;16.90;99.90;;;;;;5042392;28;20033;-34
2023/04/30 12:39:15;;;;;;;2.28;1.80;;;17.00;99.90;;;;;;5042236;28;20385;-33
2023/04/30 12:41:45;;;;;;;3.25;1.88;;;17.00;99.90;;;;;;5042565;28;20017;-36
2023/04/30 12:44:26;;;;;;;2.70;1.77;;;17.10;99.90;;;;;;5042270;28;20020;-34
2023/04/30 12:46:55;;;;;;;2.28;1.40;;;17.30;99.90;;;;;;5042321;28;20060;-35
2023/04/30 12:49:27;;;;;;;1.58;1.42;;;17.40;99.90;;;;;;5042608;28;20590;-35
2023/04/30 12:52:06;;;;;;;2.80;1.40;;;17.50;99.90;;;;;;5041321;28;20037;-34
2023/04/30 12:54:32;;;;;;;1.20;1.10;;;17.50;99.90;;;;;;5042375;28;20435;-33
2023/04/30 12:57:00;;;;;;;1.70;1.10;;;17.60;99.90;;;;;;5041792;28;20962;-33
2023/04/30 12:59:26;;;;;;;1.52;1.10;;;17.70;99.90;;;;;;5042836;28;20056;-35
2023/04/30 13:01:53;;;;;;;1.15;1.05;;;17.70;99.90;;;;;;5042723;28;20029;-34